sensor_id;sensor_type;location;lat;lon;timestamp;P1;durP1;ratioP1;P2;durP2;ratioP2
40501;SDS011;29631;49.168;9.848;2022-08-21T00:00:10;1.65;;;1.27;;
40501;SDS011;29631;49.168;9.848;2022-08-21T00:02:44;2.05;;;1.30;;
40501;SDS011;29631;49.168;9.848;2022-08-21T00:05:21;1.52;;;1.52;;
40501;SDS011;29631;49.168;9.848;2022-08-21T00:07:49;1.52;;;1.42;;
40501;SDS011;29631;49.168;9.848;2022-08-21T00:10:16;1.90;;;1.70;;
40501;SDS011;29631;49.168;9.848;2022-08-21T00:12:43;1.73;;;1.27;;
40501;SDS011;29631;49.168;9.848;2022-08-21T00:15:10;1.27;;;1.27;;
40501;SDS011;29631;49.168;9.848;2022-08-21T00:17:40;1.70;;;1.50;;
40501;SDS011;29631;49.168;9.848;2022-08-21T00:20:07;1.70;;;1.60;;
40501;SDS011;29631;49.168;9.848;2022-08-21T00:22:34;1.88;;;1.77;;
40501;SDS011;29631;49.168;9.848;2022-08-21T00:25:02;2.75;;;1.95;;
40501;SDS011;29631;49.168;9.848;2022-08-21T00:27:31;1.67;;;1.67;;
40501;SDS011;29631;49.168;9.848;2022-08-21T00:29:57;1.50;;;1.50;;
40501;SDS011;29631;49.168;9.848;2022-08-21T00:32:23;1.70;;;1.70;;
40501;SDS011;29631;49.168;9.848;2022-08-21T00:34:51;2.10;;;2.00;;
40501;SDS011;29631;49.168;9.848;2022-08-21T00:37:18;2.20;;;2.10;;
40501;SDS011;29631;49.168;9.848;2022-08-21T00:39:44;1.90;;;1.80;;
40501;SDS011;29631;49.168;9.848;2022-08-21T00:42:11;2.22;;;2.13;;
40501;SDS011;29631;49.168;9.848;2022-08-21T00:44:41;2.60;;;2.40;;
40501;SDS011;29631;49.168;9.848;2022-08-21T00:47:12;2.67;;;2.47;;
40501;SDS011;29631;49.168;9.848;2022-08-21T00:49:39;2.40;;;2.30;;
40501;SDS011;29631;49.168;9.848;2022-08-21T00:52:06;2.30;;;2.20;;
40501;SDS011;29631;49.168;9.848;2022-08-21T00:54:37;2.63;;;2.53;;
40501;SDS011;29631;49.168;9.848;2022-08-21T00:57:07;2.60;;;2.50;;
40501;SDS011;29631;49.168;9.848;2022-08-21T00:59:43;2.30;;;2.20;;
40501;SDS011;29631;49.168;9.848;2022-08-21T01:02:13;1.98;;;1.90;;
40501;SDS011;29631;49.168;9.848;2022-08-21T01:04:41;2.05;;;1.90;;
40501;SDS011;29631;49.168;9.848;2022-08-21T01:07:08;2.35;;;2.15;;
40501;SDS011;29631;49.168;9.848;2022-08-21T01:09:34;2.30;;;2.10;;
40501;SDS011;29631;49.168;9.848;2022-08-21T01:12:00;1.88;;;1.77;;
40501;SDS011;29631;49.168;9.848;2022-08-21T01:14:27;2.08;;;1.98;;
40501;SDS011;29631;49.168;9.848;2022-08-21T01:16:53;1.98;;;1.80;;
40501;SDS011;29631;49.168;9.848;2022-08-21T01:19:20;2.20;;;2.00;;
40501;SDS011;29631;49.168;9.848;2022-08-21T01:21:47;2.53;;;2.33;;
40501;SDS011;29631;49.168;9.848;2022-08-21T01:24:14;2.28;;;2.10;;
40501;SDS011;29631;49.168;9.848;2022-08-21T01:26:40;5.38;;;2.10;;
40501;SDS011;29631;49.168;9.848;2022-08-21T01:32:11;1.77;;;1.70;;
40501;SDS011;29631;49.168;9.848;2022-08-21T01:34:41;2.30;;;2.10;;
40501;SDS011;29631;49.168;9.848;2022-08-21T01:37:10;2.38;;;2.13;;
40501;SDS011;29631;49.168;9.848;2022-08-21T01:39:37;2.95;;;2.38;;
40501;SDS011;29631;49.168;9.848;2022-08-21T01:42:04;2.30;;;2.20;;
40501;SDS011;29631;49.168;9.848;2022-08-21T01:44:30;2.22;;;2.00;;
40501;SDS011;29631;49.168;9.848;2022-08-21T01:46:57;1.67;;;1.67;;
40501;SDS011;29631;49.168;9.848;2022-08-21T01:49:26;2.75;;;1.77;;
40501;SDS011;29631;49.168;9.848;2022-08-21T01:51:52;2.17;;;1.67;;
40501;SDS011;29631;49.168;9.848;2022-08-21T01:54:18;1.80;;;1.70;;
40501;SDS011;29631;49.168;9.848;2022-08-21T01:56:46;2.33;;;2.22;;
40501;SDS011;29631;49.168;9.848;2022-08-21T01:59:14;2.33;;;2.00;;
40501;SDS011;29631;49.168;9.848;2022-08-21T02:01:40;2.17;;;2.17;;
40501;SDS011;29631;49.168;9.848;2022-08-21T02:04:07;2.10;;;2.00;;
40501;SDS011;29631;49.168;9.848;2022-08-21T02:06:35;2.58;;;2.38;;
40501;SDS011;29631;49.168;9.848;2022-08-21T02:09:03;2.35;;;2.15;;
40501;SDS011;29631;49.168;9.848;2022-08-21T02:11:30;2.65;;;2.45;;
40501;SDS011;29631;49.168;9.848;2022-08-21T02:13:57;2.40;;;2.30;;
40501;SDS011;29631;49.168;9.848;2022-08-21T02:16:23;2.50;;;2.40;;
40501;SDS011;29631;49.168;9.848;2022-08-21T02:18:49;3.05;;;2.17;;
40501;SDS011;29631;49.168;9.848;2022-08-21T02:21:15;3.15;;;2.20;;
40501;SDS011;29631;49.168;9.848;2022-08-21T02:23:41;2.42;;;2.22;;
40501;SDS011;29631;49.168;9.848;2022-08-21T02:26:07;2.45;;;2.30;;
40501;SDS011;29631;49.168;9.848;2022-08-21T02:28:34;3.28;;;2.55;;
40501;SDS011;29631;49.168;9.848;2022-08-21T02:31:01;2.25;;;2.05;;
40501;SDS011;29631;49.168;9.848;2022-08-21T02:33:28;2.17;;;2.08;;
40501;SDS011;29631;49.168;9.848;2022-08-21T02:35:54;2.40;;;2.30;;
40501;SDS011;29631;49.168;9.848;2022-08-21T02:38:22;2.20;;;2.10;;
40501;SDS011;29631;49.168;9.848;2022-08-21T02:40:53;2.25;;;2.15;;
40501;SDS011;29631;49.168;9.848;2022-08-21T02:43:21;2.72;;;2.53;;
40501;SDS011;29631;49.168;9.848;2022-08-21T02:45:49;2.45;;;2.35;;
40501;SDS011;29631;49.168;9.848;2022-08-21T02:48:17;2.55;;;2.45;;
40501;SDS011;29631;49.168;9.848;2022-08-21T02:50:50;2.22;;;2.13;;
40501;SDS011;29631;49.168;9.848;2022-08-21T02:53:20;2.50;;;2.40;;
40501;SDS011;29631;49.168;9.848;2022-08-21T02:55:48;2.10;;;2.00;;
40501;SDS011;29631;49.168;9.848;2022-08-21T02:58:16;2.17;;;2.08;;
40501;SDS011;29631;49.168;9.848;2022-08-21T03:00:46;2.88;;;2.60;;
40501;SDS011;29631;49.168;9.848;2022-08-21T03:03:12;2.65;;;2.45;;
40501;SDS011;29631;49.168;9.848;2022-08-21T03:05:38;2.05;;;1.95;;
40501;SDS011;29631;49.168;9.848;2022-08-21T03:08:05;2.10;;;2.00;;
40501;SDS011;29631;49.168;9.848;2022-08-21T03:10:37;2.40;;;2.30;;
40501;SDS011;29631;49.168;9.848;2022-08-21T03:13:10;2.10;;;2.00;;
40501;SDS011;29631;49.168;9.848;2022-08-21T03:15:36;2.20;;;2.10;;
40501;SDS011;29631;49.168;9.848;2022-08-21T03:18:02;2.15;;;2.05;;
40501;SDS011;29631;49.168;9.848;2022-08-21T03:20:29;2.03;;;1.98;;
40501;SDS011;29631;49.168;9.848;2022-08-21T03:22:57;2.13;;;2.05;;
40501;SDS011;29631;49.168;9.848;2022-08-21T03:25:24;2.35;;;2.20;;
40501;SDS011;29631;49.168;9.848;2022-08-21T03:27:52;3.38;;;2.60;;
40501;SDS011;29631;49.168;9.848;2022-08-21T03:30:19;2.45;;;2.25;;
40501;SDS011;29631;49.168;9.848;2022-08-21T03:32:48;2.40;;;2.13;;
40501;SDS011;29631;49.168;9.848;2022-08-21T03:35:16;2.53;;;2.40;;
40501;SDS011;29631;49.168;9.848;2022-08-21T03:37:44;2.10;;;1.92;;
40501;SDS011;29631;49.168;9.848;2022-08-21T03:40:10;2.25;;;1.90;;
40501;SDS011;29631;49.168;9.848;2022-08-21T03:42:39;2.60;;;2.40;;
40501;SDS011;29631;49.168;9.848;2022-08-21T03:45:06;2.05;;;2.00;;
40501;SDS011;29631;49.168;9.848;2022-08-21T03:47:32;2.20;;;2.13;;
40501;SDS011;29631;49.168;9.848;2022-08-21T03:49:58;2.08;;;2.00;;
40501;SDS011;29631;49.168;9.848;2022-08-21T03:52:25;2.25;;;2.15;;
40501;SDS011;29631;49.168;9.848;2022-08-21T03:54:51;2.20;;;2.10;;
40501;SDS011;29631;49.168;9.848;2022-08-21T03:57:17;2.30;;;2.20;;
40501;SDS011;29631;49.168;9.848;2022-08-21T03:59:43;2.05;;;1.98;;
40501;SDS011;29631;49.168;9.848;2022-08-21T04:02:09;2.20;;;2.10;;
40501;SDS011;29631;49.168;9.848;2022-08-21T04:04:35;2.55;;;2.35;;
40501;SDS011;29631;49.168;9.848;2022-08-21T04:07:02;2.58;;;2.20;;
40501;SDS011;29631;49.168;9.848;2022-08-21T04:09:29;2.70;;;2.50;;
40501;SDS011;29631;49.168;9.848;2022-08-21T04:11:55;2.38;;;2.28;;
40501;SDS011;29631;49.168;9.848;2022-08-21T04:14:21;2.10;;;2.00;;
40501;SDS011;29631;49.168;9.848;2022-08-21T04:16:47;2.20;;;2.10;;
40501;SDS011;29631;49.168;9.848;2022-08-21T04:19:13;2.22;;;2.13;;
40501;SDS011;29631;49.168;9.848;2022-08-21T04:21:40;2.08;;;1.95;;
40501;SDS011;29631;49.168;9.848;2022-08-21T04:24:08;2.17;;;2.08;;
40501;SDS011;29631;49.168;9.848;2022-08-21T04:26:34;2.50;;;2.40;;
40501;SDS011;29631;49.168;9.848;2022-08-21T04:29:03;2.00;;;1.90;;
40501;SDS011;29631;49.168;9.848;2022-08-21T04:31:31;2.55;;;2.10;;
40501;SDS011;29631;49.168;9.848;2022-08-21T04:33:58;2.30;;;2.10;;
40501;SDS011;29631;49.168;9.848;2022-08-21T04:36:24;2.15;;;2.05;;
40501;SDS011;29631;49.168;9.848;2022-08-21T04:38:50;2.15;;;1.90;;
40501;SDS011;29631;49.168;9.848;2022-08-21T04:41:16;2.40;;;2.30;;
40501;SDS011;29631;49.168;9.848;2022-08-21T04:43:42;2.78;;;2.22;;
40501;SDS011;29631;49.168;9.848;2022-08-21T04:46:07;2.10;;;2.00;;
40501;SDS011;29631;49.168;9.848;2022-08-21T04:48:33;2.58;;;2.47;;
40501;SDS011;29631;49.168;9.848;2022-08-21T04:56:25;1.73;;;1.73;;
40501;SDS011;29631;49.168;9.848;2022-08-21T04:58:56;2.00;;;2.00;;
40501;SDS011;29631;49.168;9.848;2022-08-21T05:01:29;2.28;;;2.17;;
40501;SDS011;29631;49.168;9.848;2022-08-21T05:03:59;2.13;;;2.03;;
40501;SDS011;29631;49.168;9.848;2022-08-21T05:06:29;2.03;;;1.92;;
40501;SDS011;29631;49.168;9.848;2022-08-21T05:08:58;2.15;;;2.03;;
40501;SDS011;29631;49.168;9.848;2022-08-21T05:11:26;2.67;;;2.47;;
40501;SDS011;29631;49.168;9.848;2022-08-21T05:13:51;2.75;;;2.55;;
40501;SDS011;29631;49.168;9.848;2022-08-21T05:16:17;2.80;;;2.60;;
40501;SDS011;29631;49.168;9.848;2022-08-21T05:18:43;2.70;;;2.50;;
40501;SDS011;29631;49.168;9.848;2022-08-21T05:21:09;2.65;;;2.08;;
40501;SDS011;29631;49.168;9.848;2022-08-21T05:23:34;2.40;;;2.30;;
40501;SDS011;29631;49.168;9.848;2022-08-21T05:26:01;2.63;;;2.50;;
40501;SDS011;29631;49.168;9.848;2022-08-21T05:28:29;2.42;;;2.33;;
40501;SDS011;29631;49.168;9.848;2022-08-21T05:30:56;2.33;;;2.22;;
40501;SDS011;29631;49.168;9.848;2022-08-21T05:33:22;2.38;;;2.17;;
40501;SDS011;29631;49.168;9.848;2022-08-21T05:35:51;2.53;;;2.15;;
40501;SDS011;29631;49.168;9.848;2022-08-21T05:38:20;2.70;;;2.60;;
40501;SDS011;29631;49.168;9.848;2022-08-21T05:40:47;3.42;;;2.63;;
40501;SDS011;29631;49.168;9.848;2022-08-21T05:43:13;2.90;;;2.70;;
40501;SDS011;29631;49.168;9.848;2022-08-21T05:45:40;2.65;;;2.55;;
40501;SDS011;29631;49.168;9.848;2022-08-21T05:48:07;3.30;;;2.35;;
40501;SDS011;29631;49.168;9.848;2022-08-21T05:50:34;3.20;;;3.03;;
40501;SDS011;29631;49.168;9.848;2022-08-21T05:53:02;3.15;;;3.00;;
40501;SDS011;29631;49.168;9.848;2022-08-21T05:55:28;3.35;;;3.15;;
40501;SDS011;29631;49.168;9.848;2022-08-21T05:57:53;3.38;;;3.17;;
40501;SDS011;29631;49.168;9.848;2022-08-21T06:00:19;3.08;;;2.95;;
40501;SDS011;29631;49.168;9.848;2022-08-21T06:02:48;3.17;;;2.97;;
40501;SDS011;29631;49.168;9.848;2022-08-21T06:05:15;2.95;;;2.85;;
40501;SDS011;29631;49.168;9.848;2022-08-21T06:07:42;3.47;;;3.17;;
40501;SDS011;29631;49.168;9.848;2022-08-21T06:10:08;3.28;;;3.00;;
40501;SDS011;29631;49.168;9.848;2022-08-21T06:12:35;3.75;;;3.55;;
40501;SDS011;29631;49.168;9.848;2022-08-21T06:15:01;3.55;;;3.35;;
40501;SDS011;29631;49.168;9.848;2022-08-21T06:17:28;4.30;;;3.90;;
40501;SDS011;29631;49.168;9.848;2022-08-21T06:19:54;3.72;;;3.53;;
40501;SDS011;29631;49.168;9.848;2022-08-21T06:22:20;3.42;;;3.22;;
40501;SDS011;29631;49.168;9.848;2022-08-21T06:24:46;3.80;;;3.60;;
40501;SDS011;29631;49.168;9.848;2022-08-21T06:27:12;3.28;;;3.03;;
40501;SDS011;29631;49.168;9.848;2022-08-21T06:29:38;3.35;;;3.15;;
40501;SDS011;29631;49.168;9.848;2022-08-21T06:32:04;3.50;;;3.17;;
40501;SDS011;29631;49.168;9.848;2022-08-21T06:34:32;3.30;;;3.10;;
40501;SDS011;29631;49.168;9.848;2022-08-21T06:37:03;3.60;;;3.40;;
40501;SDS011;29631;49.168;9.848;2022-08-21T06:39:29;3.72;;;3.45;;
40501;SDS011;29631;49.168;9.848;2022-08-21T06:41:55;4.00;;;3.70;;
40501;SDS011;29631;49.168;9.848;2022-08-21T06:44:21;4.47;;;4.07;;
40501;SDS011;29631;49.168;9.848;2022-08-21T06:46:47;4.03;;;3.75;;
40501;SDS011;29631;49.168;9.848;2022-08-21T06:49:13;4.10;;;3.80;;
40501;SDS011;29631;49.168;9.848;2022-08-21T06:51:39;4.22;;;3.92;;
40501;SDS011;29631;49.168;9.848;2022-08-21T06:54:05;5.03;;;3.88;;
40501;SDS011;29631;49.168;9.848;2022-08-21T06:56:31;6.45;;;3.60;;
40501;SDS011;29631;49.168;9.848;2022-08-21T06:58:58;3.75;;;3.38;;
40501;SDS011;29631;49.168;9.848;2022-08-21T07:01:25;3.67;;;3.40;;
40501;SDS011;29631;49.168;9.848;2022-08-21T07:03:51;4.22;;;3.92;;
40501;SDS011;29631;49.168;9.848;2022-08-21T07:06:17;4.35;;;3.58;;
40501;SDS011;29631;49.168;9.848;2022-08-21T07:08:43;4.07;;;3.78;;
40501;SDS011;29631;49.168;9.848;2022-08-21T07:11:11;3.47;;;3.28;;
40501;SDS011;29631;49.168;9.848;2022-08-21T07:13:44;4.00;;;3.70;;
40501;SDS011;29631;49.168;9.848;2022-08-21T07:16:10;4.75;;;4.35;;
40501;SDS011;29631;49.168;9.848;2022-08-21T07:18:36;4.80;;;4.50;;
40501;SDS011;29631;49.168;9.848;2022-08-21T07:21:03;5.03;;;4.13;;
40501;SDS011;29631;49.168;9.848;2022-08-21T07:23:31;5.25;;;4.28;;
40501;SDS011;29631;49.168;9.848;2022-08-21T07:26:01;4.60;;;4.30;;
40501;SDS011;29631;49.168;9.848;2022-08-21T07:28:29;4.63;;;4.32;;
40501;SDS011;29631;49.168;9.848;2022-08-21T07:30:56;4.53;;;3.80;;
40501;SDS011;29631;49.168;9.848;2022-08-21T07:33:25;4.18;;;3.83;;
40501;SDS011;29631;49.168;9.848;2022-08-21T07:35:52;4.85;;;4.45;;
40501;SDS011;29631;49.168;9.848;2022-08-21T07:38:18;4.72;;;4.28;;
40501;SDS011;29631;49.168;9.848;2022-08-21T07:40:45;5.13;;;4.72;;
40501;SDS011;29631;49.168;9.848;2022-08-21T07:43:12;5.40;;;4.90;;
40501;SDS011;29631;49.168;9.848;2022-08-21T07:45:37;4.43;;;4.13;;
40501;SDS011;29631;49.168;9.848;2022-08-21T07:48:04;5.70;;;4.90;;
40501;SDS011;29631;49.168;9.848;2022-08-21T07:50:29;4.80;;;4.40;;
40501;SDS011;29631;49.168;9.848;2022-08-21T07:52:55;4.93;;;4.63;;
40501;SDS011;29631;49.168;9.848;2022-08-21T07:55:22;5.38;;;4.93;;
40501;SDS011;29631;49.168;9.848;2022-08-21T07:57:48;5.22;;;4.78;;
40501;SDS011;29631;49.168;9.848;2022-08-21T08:00:22;5.45;;;5.05;;
40501;SDS011;29631;49.168;9.848;2022-08-21T08:02:50;5.07;;;4.68;;
40501;SDS011;29631;49.168;9.848;2022-08-21T08:05:18;5.47;;;4.55;;
40501;SDS011;29631;49.168;9.848;2022-08-21T08:07:46;4.68;;;4.20;;
40501;SDS011;29631;49.168;9.848;2022-08-21T08:10:12;5.13;;;4.38;;
40501;SDS011;29631;49.168;9.848;2022-08-21T08:12:40;5.13;;;4.63;;
40501;SDS011;29631;49.168;9.848;2022-08-21T08:15:08;5.28;;;4.78;;
40501;SDS011;29631;49.168;9.848;2022-08-21T08:17:38;4.65;;;4.25;;
40501;SDS011;29631;49.168;9.848;2022-08-21T08:20:05;5.43;;;5.03;;
40501;SDS011;29631;49.168;9.848;2022-08-21T08:22:33;5.38;;;4.97;;
40501;SDS011;29631;49.168;9.848;2022-08-21T08:25:00;5.28;;;4.97;;
40501;SDS011;29631;49.168;9.848;2022-08-21T08:27:26;4.53;;;4.22;;
40501;SDS011;29631;49.168;9.848;2022-08-21T08:29:52;5.18;;;4.82;;
40501;SDS011;29631;49.168;9.848;2022-08-21T08:32:18;4.95;;;4.65;;
40501;SDS011;29631;49.168;9.848;2022-08-21T08:34:44;5.15;;;4.68;;
40501;SDS011;29631;49.168;9.848;2022-08-21T08:37:12;4.88;;;4.55;;
40501;SDS011;29631;49.168;9.848;2022-08-21T08:39:38;5.05;;;4.68;;
40501;SDS011;29631;49.168;9.848;2022-08-21T08:44:58;5.00;;;4.60;;
40501;SDS011;29631;49.168;9.848;2022-08-21T08:47:31;5.60;;;5.07;;
40501;SDS011;29631;49.168;9.848;2022-08-21T08:50:06;5.00;;;4.60;;
40501;SDS011;29631;49.168;9.848;2022-08-21T08:53:03;4.53;;;4.22;;
40501;SDS011;29631;49.168;9.848;2022-08-21T08:55:34;5.70;;;4.40;;
40501;SDS011;29631;49.168;9.848;2022-08-21T08:58:06;4.82;;;4.45;;
40501;SDS011;29631;49.168;9.848;2022-08-21T09:00:34;5.30;;;4.75;;
40501;SDS011;29631;49.168;9.848;2022-08-21T09:03:01;4.70;;;4.32;;
40501;SDS011;29631;49.168;9.848;2022-08-21T09:05:40;4.82;;;4.50;;
40501;SDS011;29631;49.168;9.848;2022-08-21T09:11:41;3.95;;;3.67;;
40501;SDS011;29631;49.168;9.848;2022-08-21T09:23:36;3.83;;;3.60;;
40501;SDS011;29631;49.168;9.848;2022-08-21T09:26:19;3.97;;;3.67;;
40501;SDS011;29631;49.168;9.848;2022-08-21T09:28:54;4.38;;;3.75;;
40501;SDS011;29631;49.168;9.848;2022-08-21T09:34:05;4.00;;;3.70;;
40501;SDS011;29631;49.168;9.848;2022-08-21T09:39:08;5.28;;;3.00;;
40501;SDS011;29631;49.168;9.848;2022-08-21T09:41:36;4.78;;;3.28;;
40501;SDS011;29631;49.168;9.848;2022-08-21T09:44:04;3.53;;;3.30;;
40501;SDS011;29631;49.168;9.848;2022-08-21T09:46:33;4.90;;;3.60;;
40501;SDS011;29631;49.168;9.848;2022-08-21T09:49:01;3.28;;;3.08;;
40501;SDS011;29631;49.168;9.848;2022-08-21T09:51:30;3.50;;;3.30;;
40501;SDS011;29631;49.168;9.848;2022-08-21T09:54:10;3.58;;;3.28;;
40501;SDS011;29631;49.168;9.848;2022-08-21T09:56:53;3.13;;;2.92;;
40501;SDS011;29631;49.168;9.848;2022-08-21T09:59:42;3.00;;;2.80;;
40501;SDS011;29631;49.168;9.848;2022-08-21T10:04:51;2.65;;;2.50;;
40501;SDS011;29631;49.168;9.848;2022-08-21T10:07:22;2.38;;;2.17;;
40501;SDS011;29631;49.168;9.848;2022-08-21T10:09:59;2.75;;;2.55;;
40501;SDS011;29631;49.168;9.848;2022-08-21T10:12:50;3.05;;;2.50;;
40501;SDS011;29631;49.168;9.848;2022-08-21T10:18:28;3.15;;;2.60;;
40501;SDS011;29631;49.168;9.848;2022-08-21T10:20:59;2.58;;;2.38;;
40501;SDS011;29631;49.168;9.848;2022-08-21T10:26:20;2.55;;;2.40;;
40501;SDS011;29631;49.168;9.848;2022-08-21T10:35:10;2.05;;;1.95;;
40501;SDS011;29631;49.168;9.848;2022-08-21T10:40:56;2.40;;;2.25;;
40501;SDS011;29631;49.168;9.848;2022-08-21T10:49:17;3.67;;;2.65;;
40501;SDS011;29631;49.168;9.848;2022-08-21T10:55:22;2.50;;;2.35;;
40501;SDS011;29631;49.168;9.848;2022-08-21T11:01:53;3.90;;;2.00;;
40501;SDS011;29631;49.168;9.848;2022-08-21T11:04:31;1.83;;;1.73;;
40501;SDS011;29631;49.168;9.848;2022-08-21T11:07:12;2.08;;;1.90;;
40501;SDS011;29631;49.168;9.848;2022-08-21T11:09:46;2.38;;;2.17;;
40501;SDS011;29631;49.168;9.848;2022-08-21T11:14:56;2.30;;;2.13;;
40501;SDS011;29631;49.168;9.848;2022-08-21T11:17:34;4.05;;;2.10;;
40501;SDS011;29631;49.168;9.848;2022-08-21T11:20:12;2.42;;;2.15;;
40501;SDS011;29631;49.168;9.848;2022-08-21T11:23:02;2.20;;;2.03;;
40501;SDS011;29631;49.168;9.848;2022-08-21T11:25:40;3.35;;;1.90;;
40501;SDS011;29631;49.168;9.848;2022-08-21T11:28:15;2.72;;;2.20;;
40501;SDS011;29631;49.168;9.848;2022-08-21T11:31:07;2.38;;;2.17;;
40501;SDS011;29631;49.168;9.848;2022-08-21T11:36:34;2.17;;;2.00;;
40501;SDS011;29631;49.168;9.848;2022-08-21T11:39:35;2.90;;;2.20;;
40501;SDS011;29631;49.168;9.848;2022-08-21T11:42:43;2.50;;;2.30;;
40501;SDS011;29631;49.168;9.848;2022-08-21T11:45:36;2.75;;;2.33;;
40501;SDS011;29631;49.168;9.848;2022-08-21T11:48:38;2.25;;;2.05;;
40501;SDS011;29631;49.168;9.848;2022-08-21T11:51:17;4.65;;;2.13;;
40501;SDS011;29631;49.168;9.848;2022-08-21T11:53:47;2.17;;;1.98;;
40501;SDS011;29631;49.168;9.848;2022-08-21T11:56:27;3.40;;;1.95;;
40501;SDS011;29631;49.168;9.848;2022-08-21T11:59:12;2.33;;;2.13;;
40501;SDS011;29631;49.168;9.848;2022-08-21T12:01:46;2.35;;;2.25;;
40501;SDS011;29631;49.168;9.848;2022-08-21T12:06:55;2.42;;;2.22;;
40501;SDS011;29631;49.168;9.848;2022-08-21T12:11:59;2.40;;;2.22;;
40501;SDS011;29631;49.168;9.848;2022-08-21T12:14:47;2.50;;;2.30;;
40501;SDS011;29631;49.168;9.848;2022-08-21T12:17:18;2.60;;;2.05;;
40501;SDS011;29631;49.168;9.848;2022-08-21T12:20:00;2.05;;;1.70;;
40501;SDS011;29631;49.168;9.848;2022-08-21T12:23:02;2.42;;;1.92;;
40501;SDS011;29631;49.168;9.848;2022-08-21T12:25:44;2.30;;;2.00;;
40501;SDS011;29631;49.168;9.848;2022-08-21T12:28:38;2.10;;;1.95;;
40501;SDS011;29631;49.168;9.848;2022-08-21T12:31:04;2.45;;;1.90;;
40501;SDS011;29631;49.168;9.848;2022-08-21T12:33:52;1.80;;;1.70;;
40501;SDS011;29631;49.168;9.848;2022-08-21T12:36:59;2.60;;;1.90;;
40501;SDS011;29631;49.168;9.848;2022-08-21T12:39:25;1.90;;;1.80;;
40501;SDS011;29631;49.168;9.848;2022-08-21T12:42:05;2.03;;;1.83;;
40501;SDS011;29631;49.168;9.848;2022-08-21T12:45:07;1.90;;;1.80;;
40501;SDS011;29631;49.168;9.848;2022-08-21T12:56:23;2.03;;;1.83;;
40501;SDS011;29631;49.168;9.848;2022-08-21T12:58:56;2.30;;;1.70;;
40501;SDS011;29631;49.168;9.848;2022-08-21T13:01:31;1.77;;;1.70;;
40501;SDS011;29631;49.168;9.848;2022-08-21T13:04:15;2.25;;;2.00;;
40501;SDS011;29631;49.168;9.848;2022-08-21T13:06:47;3.80;;;1.85;;
40501;SDS011;29631;49.168;9.848;2022-08-21T13:09:18;1.75;;;1.65;;
40501;SDS011;29631;49.168;9.848;2022-08-21T13:11:51;2.75;;;1.73;;
40501;SDS011;29631;49.168;9.848;2022-08-21T13:14:30;2.72;;;1.88;;
40501;SDS011;29631;49.168;9.848;2022-08-21T13:17:04;1.50;;;1.40;;
40501;SDS011;29631;49.168;9.848;2022-08-21T13:19:31;1.75;;;1.65;;
40501;SDS011;29631;49.168;9.848;2022-08-21T13:21:59;1.63;;;1.50;;
40501;SDS011;29631;49.168;9.848;2022-08-21T13:24:27;1.67;;;1.50;;
40501;SDS011;29631;49.168;9.848;2022-08-21T13:27:00;1.90;;;1.80;;
40501;SDS011;29631;49.168;9.848;2022-08-21T13:29:28;1.98;;;1.85;;
40501;SDS011;29631;49.168;9.848;2022-08-21T13:32:02;1.83;;;1.70;;
40501;SDS011;29631;49.168;9.848;2022-08-21T13:34:35;2.00;;;1.80;;
40501;SDS011;29631;49.168;9.848;2022-08-21T13:37:07;4.05;;;1.90;;
40501;SDS011;29631;49.168;9.848;2022-08-21T13:39:36;4.53;;;2.10;;
40501;SDS011;29631;49.168;9.848;2022-08-21T13:42:03;1.80;;;1.70;;
40501;SDS011;29631;49.168;9.848;2022-08-21T13:44:39;2.28;;;2.08;;
40501;SDS011;29631;49.168;9.848;2022-08-21T13:47:09;1.80;;;1.70;;
40501;SDS011;29631;49.168;9.848;2022-08-21T13:49:39;2.00;;;1.90;;
40501;SDS011;29631;49.168;9.848;2022-08-21T13:52:16;4.40;;;1.85;;
40501;SDS011;29631;49.168;9.848;2022-08-21T13:54:53;1.80;;;1.70;;
40501;SDS011;29631;49.168;9.848;2022-08-21T13:57:27;1.90;;;1.80;;
40501;SDS011;29631;49.168;9.848;2022-08-21T14:00:10;1.80;;;1.70;;
40501;SDS011;29631;49.168;9.848;2022-08-21T14:02:41;1.90;;;1.80;;
40501;SDS011;29631;49.168;9.848;2022-08-21T14:05:21;1.88;;;1.77;;
40501;SDS011;29631;49.168;9.848;2022-08-21T14:07:56;2.10;;;1.70;;
40501;SDS011;29631;49.168;9.848;2022-08-21T14:10:42;1.80;;;1.70;;
40501;SDS011;29631;49.168;9.848;2022-08-21T14:16:18;1.90;;;1.80;;
40501;SDS011;29631;49.168;9.848;2022-08-21T14:21:28;2.97;;;2.20;;
40501;SDS011;29631;49.168;9.848;2022-08-21T14:24:04;2.40;;;1.95;;
40501;SDS011;29631;49.168;9.848;2022-08-21T14:26:36;1.90;;;1.80;;
40501;SDS011;29631;49.168;9.848;2022-08-21T14:29:18;1.83;;;1.73;;
40501;SDS011;29631;49.168;9.848;2022-08-21T14:31:57;2.28;;;1.83;;
40501;SDS011;29631;49.168;9.848;2022-08-21T14:34:26;2.03;;;1.92;;
40501;SDS011;29631;49.168;9.848;2022-08-21T14:36:54;1.98;;;1.88;;
40501;SDS011;29631;49.168;9.848;2022-08-21T14:39:21;2.25;;;1.90;;
40501;SDS011;29631;49.168;9.848;2022-08-21T14:41:47;2.15;;;1.90;;
40501;SDS011;29631;49.168;9.848;2022-08-21T14:44:14;2.17;;;1.83;;
40501;SDS011;29631;49.168;9.848;2022-08-21T14:46:42;2.33;;;1.70;;
40501;SDS011;29631;49.168;9.848;2022-08-21T14:49:08;2.10;;;2.00;;
40501;SDS011;29631;49.168;9.848;2022-08-21T14:51:34;2.10;;;2.00;;
40501;SDS011;29631;49.168;9.848;2022-08-21T14:54:00;1.67;;;1.67;;
40501;SDS011;29631;49.168;9.848;2022-08-21T14:56:25;2.10;;;2.00;;
40501;SDS011;29631;49.168;9.848;2022-08-21T14:58:51;2.20;;;2.00;;
40501;SDS011;29631;49.168;9.848;2022-08-21T15:01:21;1.90;;;1.80;;
40501;SDS011;29631;49.168;9.848;2022-08-21T15:03:48;2.30;;;2.00;;
40501;SDS011;29631;49.168;9.848;2022-08-21T15:06:14;2.30;;;2.10;;
40501;SDS011;29631;49.168;9.848;2022-08-21T15:08:42;2.00;;;1.90;;
40501;SDS011;29631;49.168;9.848;2022-08-21T15:11:08;2.03;;;1.92;;
40501;SDS011;29631;49.168;9.848;2022-08-21T15:13:47;2.15;;;2.03;;
40501;SDS011;29631;49.168;9.848;2022-08-21T15:16:20;3.13;;;2.00;;
40501;SDS011;29631;49.168;9.848;2022-08-21T15:18:45;2.10;;;2.00;;
40501;SDS011;29631;49.168;9.848;2022-08-21T15:21:11;1.85;;;1.75;;
40501;SDS011;29631;49.168;9.848;2022-08-21T15:23:37;2.40;;;2.20;;
40501;SDS011;29631;49.168;9.848;2022-08-21T15:26:03;2.20;;;2.00;;
40501;SDS011;29631;49.168;9.848;2022-08-21T15:28:29;1.90;;;1.80;;
40501;SDS011;29631;49.168;9.848;2022-08-21T15:30:55;1.90;;;1.80;;
40501;SDS011;29631;49.168;9.848;2022-08-21T15:33:21;2.08;;;1.98;;
40501;SDS011;29631;49.168;9.848;2022-08-21T15:35:47;2.17;;;2.08;;
40501;SDS011;29631;49.168;9.848;2022-08-21T15:38:13;1.85;;;1.75;;
40501;SDS011;29631;49.168;9.848;2022-08-21T15:40:40;1.90;;;1.80;;
40501;SDS011;29631;49.168;9.848;2022-08-21T15:43:21;2.22;;;2.03;;
40501;SDS011;29631;49.168;9.848;2022-08-21T15:45:56;1.98;;;1.88;;
40501;SDS011;29631;49.168;9.848;2022-08-21T15:48:24;2.00;;;1.90;;
40501;SDS011;29631;49.168;9.848;2022-08-21T15:50:50;2.72;;;1.85;;
40501;SDS011;29631;49.168;9.848;2022-08-21T15:53:16;2.00;;;1.80;;
40501;SDS011;29631;49.168;9.848;2022-08-21T15:55:42;2.35;;;1.90;;
40501;SDS011;29631;49.168;9.848;2022-08-21T15:58:10;1.90;;;1.80;;
40501;SDS011;29631;49.168;9.848;2022-08-21T16:00:42;1.95;;;1.80;;
40501;SDS011;29631;49.168;9.848;2022-08-21T16:03:09;2.38;;;1.85;;
40501;SDS011;29631;49.168;9.848;2022-08-21T16:05:41;1.90;;;1.80;;
40501;SDS011;29631;49.168;9.848;2022-08-21T16:08:09;12.05;;;11.15;;
40501;SDS011;29631;49.168;9.848;2022-08-21T16:10:36;8.45;;;7.78;;
40501;SDS011;29631;49.168;9.848;2022-08-21T16:13:04;4.60;;;4.30;;
40501;SDS011;29631;49.168;9.848;2022-08-21T16:15:50;2.63;;;2.53;;
40501;SDS011;29631;49.168;9.848;2022-08-21T16:18:16;2.50;;;2.35;;
40501;SDS011;29631;49.168;9.848;2022-08-21T16:20:43;2.85;;;2.25;;
40501;SDS011;29631;49.168;9.848;2022-08-21T16:23:09;2.50;;;2.30;;
40501;SDS011;29631;49.168;9.848;2022-08-21T16:25:36;4.85;;;2.20;;
40501;SDS011;29631;49.168;9.848;2022-08-21T16:28:04;1.73;;;1.63;;
40501;SDS011;29631;49.168;9.848;2022-08-21T16:30:33;2.42;;;1.95;;